Impacts METAR Board
IDs:

KSFO - San Francisco Intl, CA, US

Updated at: 0700 UTC 24 Jun 2018
Potential Impact None Slight Moderate High
Time 23/19Z 23/20Z 23/21Z 23/22Z 23/23Z 24/00Z 24/01Z 24/02Z 24/03Z 24/04Z 24/05Z 24/06Z 24/07Z
Temp85 88 81 80 86 83 78 73 68 66 69 67 67
Dewpt54 53 53 52 52 52 51 51 51 51 51 56 56
Altim29.78 29.77 29.75 29.74 29.73 29.71 29.71 29.71 29.71 29.73 29.75 29.76 29.77
VIS10 10 10 10 10 10 10 10 10 10 10 10 10
CIG-- -- -- -- -- -- -- -- -- -- -- -- --
CoverCLRCLRCLRCLRCLRCLRCLRCLRCLRCLRCLRCLRCLR
FltCatVFRVFRVFRVFRVFRVFRVFRVFRVFRVFRVFRVFRVFR
WX--------------------------
WDir2902903002902902902902903003002801020
WSpd12 13 15 17 15 18 20 12 15 14 5 5 5
WGst-- -- -- -- -- -- -- -- -- -- -- -- --
Raw hourly METARs
KSFO 231856Z 29012KT 10SM CLR 29/12 A2978 RMK AO2 SLP085 T02940122
KSFO 231956Z 29013KT 10SM CLR 31/12 A2977 RMK AO2 SLP080 T03110117
KSFO 232056Z 30015KT 10SM CLR 27/12 A2975 RMK AO2 SLP075 T02720117 58014
KSFO 232156Z 29017KT 10SM CLR 27/11 A2974 RMK AO2 SLP072 T02670111
KSFO 232256Z 29015KT 10SM CLR 30/11 A2973 RMK AO2 SLP066 T03000111
KSFO 232356Z 29018KT 10SM CLR 28/11 A2971 RMK AO2 SLP062 T02830111 10311 20228 58013
KSFO 240056Z 29020KT 10SM CLR 26/11 A2971 RMK AO2 SLP059 T02560106
KSFO 240156Z 29012KT 10SM CLR 23/11 A2971 RMK AO2 SLP060 T02280106
KSFO 240256Z 30015KT 10SM CLR 20/11 A2971 RMK AO2 SLP060 T02000106 55002
KSFO 240356Z 30014KT 10SM CLR 19/11 A2973 RMK AO2 SLP067 T01890106
KSFO 240456Z 28005KT 10SM CLR 21/11 A2975 RMK AO2 SLP074 T02060106
KSFO 240556Z 01005KT 10SM CLR 19/13 A2976 RMK AO2 SLP077 T01940133 10278 20189 51017
KSFO 240656Z 02005KT 10SM CLR 19/13 A2977 RMK AO2 SLP080 T01940133



Page loaded:  07:19 UTC  |   12:19 AM Pacific  |   01:19 AM Mountain  |   02:19 AM Central  |   03:19 AM Eastern

 

ADVISORIES

FORECASTS

FORECASTS

OBSERVATIONS

USER TOOLS

ABOUT US